createdAt,value
2023-03-24T00:01:08.607Z,7.94
2023-03-24T00:03:38.260Z,7.93
2023-03-24T00:06:08.948Z,7.92
2023-03-24T00:08:38.154Z,7.88
2023-03-24T00:11:08.576Z,7.82
2023-03-24T00:13:38.554Z,7.74
2023-03-24T00:16:17.184Z,7.68
2023-03-24T00:18:50.740Z,7.72
2023-03-24T00:21:21.971Z,7.80
2023-03-24T00:23:51.148Z,7.85
2023-03-24T00:26:19.628Z,7.85
2023-03-24T00:28:53.225Z,7.84
2023-03-24T00:31:25.161Z,7.79
2023-03-24T00:33:54.489Z,7.77
2023-03-24T00:36:25.043Z,7.79
2023-03-24T00:38:54.644Z,7.81
2023-03-24T00:41:28.215Z,7.85
2023-03-24T00:44:00.702Z,7.87
2023-03-24T00:46:30.266Z,7.84
2023-03-24T00:49:07.512Z,7.82
2023-03-24T00:51:41.843Z,7.76
2023-03-24T00:54:12.887Z,7.70
2023-03-24T00:56:43.994Z,7.71
2023-03-24T00:59:14.218Z,7.73
2023-03-24T01:01:43.922Z,7.74
2023-03-24T01:04:14.456Z,7.75
2023-03-24T01:06:45.192Z,7.75
2023-03-24T01:09:13.876Z,7.72
2023-03-24T01:11:45.636Z,7.66
2023-03-24T01:14:14.840Z,7.66
2023-03-24T01:16:43.678Z,7.71
2023-03-24T01:19:12.505Z,7.77
2023-03-24T01:21:42.570Z,7.80
2023-03-24T01:24:11.231Z,7.79
2023-03-24T01:26:41.425Z,7.78
2023-03-24T01:29:10.320Z,7.75
2023-03-24T01:31:39.440Z,7.67
2023-03-24T01:34:08.814Z,7.56
2023-03-24T01:36:38.836Z,7.46
2023-03-24T01:39:08.042Z,7.39
2023-03-24T01:41:38.327Z,7.28
2023-03-24T01:44:25.870Z,7.19
2023-03-24T01:46:55.899Z,7.13
2023-03-24T01:49:26.760Z,7.15
2023-03-24T01:51:57.905Z,7.21
2023-03-24T01:54:34.858Z,7.27
2023-03-24T01:57:14.805Z,7.22
2023-03-24T01:59:47.335Z,7.12
2023-03-24T02:02:25.353Z,7.02
2023-03-24T02:05:02.625Z,6.95
2023-03-24T02:08:20.111Z,6.88
2023-03-24T02:10:50.535Z,6.76
2023-03-24T02:13:19.020Z,6.67
2023-03-24T02:16:03.294Z,6.60
2023-03-24T02:18:47.766Z,6.54
2023-03-24T02:21:38.422Z,6.54
2023-03-24T02:24:32.340Z,6.59
2023-03-24T02:27:32.933Z,6.63
2023-03-24T02:30:24.880Z,6.58
2023-03-24T02:33:14.361Z,6.55
2023-03-24T02:35:55.937Z,6.49
2023-03-24T02:38:27.990Z,6.56
2023-03-24T02:41:09.069Z,6.63
2023-03-24T02:43:57.416Z,6.69
2023-03-24T02:46:48.117Z,6.78
2023-03-24T02:49:39.331Z,6.86
2023-03-24T02:52:15.083Z,6.88
2023-03-24T02:54:52.473Z,6.89
2023-03-24T02:57:44.088Z,6.92
2023-03-24T03:00:47.253Z,6.97
2023-03-24T03:03:40.058Z,7.01
2023-03-24T03:06:18.289Z,7.04
2023-03-24T03:08:49.702Z,7.05
2023-03-24T03:11:19.097Z,7.02
2023-03-24T03:13:54.963Z,6.96
2023-03-24T03:16:34.864Z,6.95
2023-03-24T03:19:10.215Z,6.86
2023-03-24T03:21:43.183Z,6.70
2023-03-24T03:24:20.258Z,6.67
2023-03-24T03:27:00.484Z,6.66
2023-03-24T03:29:34.430Z,6.65
2023-03-24T03:32:12.996Z,6.65
2023-03-24T03:35:20.903Z,6.63
2023-03-24T03:38:20.104Z,6.64
2023-03-24T03:40:56.651Z,6.50
2023-03-24T03:43:28.635Z,6.40
2023-03-24T03:46:12.968Z,6.30
2023-03-24T03:48:42.799Z,6.34
2023-03-24T03:51:14.333Z,6.43
2023-03-24T03:54:13.775Z,6.52
2023-03-24T03:56:43.375Z,6.62
2023-03-24T03:59:25.898Z,6.66
2023-03-24T04:01:55.024Z,6.70
2023-03-24T04:04:38.332Z,6.74
2023-03-24T04:07:53.375Z,6.83
2023-03-24T04:11:06.803Z,6.91
2023-03-24T04:13:50.196Z,6.99
2023-03-24T04:16:56.755Z,7.03
2023-03-24T04:19:39.115Z,7.06
2023-03-24T04:22:24.392Z,7.11
2023-03-24T04:25:08.334Z,7.24
2023-03-24T04:27:48.399Z,7.37
2023-03-24T04:30:25.990Z,7.49
2023-03-24T04:33:07.682Z,7.58
2023-03-24T04:35:44.282Z,7.74
2023-03-24T04:38:38.637Z,7.93
2023-03-24T04:41:30.249Z,8.10
2023-03-24T04:44:08.570Z,8.21
2023-03-24T04:46:44.959Z,8.31
2023-03-24T04:49:19.875Z,8.36
2023-03-24T04:51:49.869Z,8.34
2023-03-24T04:54:30.136Z,8.27
2023-03-24T04:57:04.842Z,8.18
2023-03-24T04:59:49.826Z,8.09
2023-03-24T05:02:21.606Z,8.07
2023-03-24T05:05:08.619Z,8.03
2023-03-24T05:07:44.351Z,7.98
2023-03-24T05:10:15.300Z,7.92
2023-03-24T05:12:50.678Z,7.80
2023-03-24T05:15:37.858Z,7.76
2023-03-24T05:18:25.077Z,7.77
2023-03-24T05:20:54.777Z,7.86
2023-03-24T05:23:23.781Z,8.00
2023-03-24T05:25:54.530Z,8.15
2023-03-24T05:28:25.960Z,8.23
2023-03-24T05:30:55.834Z,8.30
2023-03-24T05:33:43.817Z,8.36
2023-03-24T05:36:14.889Z,8.39
2023-03-24T05:38:48.858Z,8.38
2023-03-24T05:41:17.663Z,8.31
2023-03-24T05:43:46.643Z,8.25
2023-03-24T05:46:16.576Z,8.28
2023-03-24T05:48:47.177Z,8.31
2023-03-24T05:51:27.878Z,8.29
2023-03-24T05:54:06.511Z,8.39
2023-03-24T05:56:42.075Z,8.50
2023-03-24T05:59:17.483Z,8.67
2023-03-24T06:02:08.711Z,8.98
2023-03-24T06:04:49.466Z,9.47
2023-03-24T06:07:26.962Z,10.07
2023-03-24T06:10:03.241Z,10.60
2023-03-24T06:12:39.175Z,11.04
2023-03-24T06:15:09.117Z,11.36
2023-03-24T06:17:46.147Z,11.57
2023-03-24T06:20:24.669Z,11.84
2023-03-24T06:23:28.479Z,11.94
2023-03-24T06:26:11.901Z,12.01
2023-03-24T06:28:58.407Z,12.33
2023-03-24T06:31:33.037Z,12.87
2023-03-24T06:34:04.439Z,13.46
2023-03-24T06:36:35.226Z,14.00
2023-03-24T06:39:06.292Z,14.54
2023-03-24T06:41:35.048Z,15.12
2023-03-24T06:44:10.286Z,15.74
2023-03-24T06:46:40.966Z,16.33
2023-03-24T06:49:11.357Z,16.85
2023-03-24T06:51:40.057Z,17.13
2023-03-24T06:54:09.753Z,17.24
2023-03-24T06:56:38.365Z,17.37
2023-03-24T06:59:08.236Z,17.48
2023-03-24T07:01:38.103Z,17.49
2023-03-24T07:04:17.282Z,17.43
2023-03-24T07:07:19.153Z,17.26
2023-03-24T07:09:51.015Z,17.12
2023-03-24T07:12:19.922Z,17.08
2023-03-24T07:14:50.527Z,17.11
2023-03-24T07:17:22.015Z,17.10
2023-03-24T07:20:11.558Z,17.04
2023-03-24T07:22:48.465Z,17.06
2023-03-24T07:25:41.065Z,17.00
2023-03-24T07:28:24.715Z,16.94
2023-03-24T07:30:56.182Z,16.92
2023-03-24T07:33:26.900Z,16.83
2023-03-24T07:35:57.663Z,16.70
2023-03-24T07:38:29.708Z,16.58
2023-03-24T07:41:02.481Z,16.59
2023-03-24T07:43:32.716Z,16.56
2023-03-24T07:46:23.231Z,16.41
2023-03-24T07:48:53.433Z,16.34
2023-03-24T07:51:22.668Z,16.31
2023-03-24T07:54:14.891Z,16.16
2023-03-24T07:56:48.514Z,16.00
2023-03-24T07:59:18.069Z,15.82
2023-03-24T08:01:57.566Z,15.70
2023-03-24T08:04:38.793Z,15.72
2023-03-24T08:07:19.649Z,15.85
2023-03-24T08:09:48.645Z,15.91
2023-03-24T08:12:20.516Z,15.99
2023-03-24T08:14:49.527Z,16.07
2023-03-24T08:17:18.497Z,16.15
2023-03-24T08:20:00.085Z,16.18
2023-03-24T08:22:31.463Z,16.23
2023-03-24T08:25:00.994Z,16.28
2023-03-24T08:27:29.688Z,16.33
2023-03-24T08:29:58.829Z,16.40
2023-03-24T08:32:27.374Z,16.48
2023-03-24T08:34:58.388Z,16.58
2023-03-24T08:37:26.961Z,16.71
2023-03-24T08:39:59.058Z,16.77
2023-03-24T08:42:27.766Z,16.81
2023-03-24T08:44:56.581Z,16.87
2023-03-24T08:47:44.300Z,16.98
2023-03-24T08:50:13.315Z,17.12
2023-03-24T08:52:42.320Z,17.20
2023-03-24T08:55:11.792Z,17.29
2023-03-24T08:57:44.483Z,17.32
2023-03-24T09:00:15.555Z,17.37
2023-03-24T09:02:54.359Z,17.45
2023-03-24T09:05:36.624Z,17.57
2023-03-24T09:08:10.231Z,17.68
2023-03-24T09:10:39.937Z,17.75
2023-03-24T09:13:09.189Z,17.85
2023-03-24T09:15:38.115Z,17.89
2023-03-24T09:18:06.654Z,17.89
2023-03-24T09:20:36.329Z,17.92
2023-03-24T09:23:05.106Z,17.91
2023-03-24T09:25:34.610Z,17.91
2023-03-24T09:28:18.767Z,17.93
2023-03-24T09:30:48.160Z,17.93
2023-03-24T09:33:19.015Z,17.94
2023-03-24T09:35:56.462Z,17.97
2023-03-24T09:38:26.609Z,18.02
2023-03-24T09:41:03.225Z,18.12
2023-03-24T09:43:40.360Z,18.21
2023-03-24T09:46:16.459Z,18.22
2023-03-24T09:48:52.951Z,18.17
2023-03-24T09:51:26.090Z,18.12
2023-03-24T09:54:13.456Z,18.10
2023-03-24T09:56:44.686Z,18.03
2023-03-24T09:59:35.104Z,17.96
2023-03-24T10:02:14.307Z,17.95
2023-03-24T10:04:44.192Z,17.98
2023-03-24T10:07:25.581Z,17.95
2023-03-24T10:09:59.139Z,18.00
2023-03-24T10:12:37.702Z,18.10
2023-03-24T10:15:24.297Z,18.14
2023-03-24T10:18:13.741Z,18.10
2023-03-24T10:21:07.495Z,18.14
2023-03-24T10:23:59.995Z,18.20
2023-03-24T10:26:32.473Z,18.20
2023-03-24T10:29:59.013Z,18.22
2023-03-24T10:32:43.343Z,18.24
2023-03-24T10:35:20.059Z,18.28
2023-03-24T10:37:49.136Z,18.29
2023-03-24T10:40:23.515Z,18.28
2023-03-24T10:43:06.297Z,18.25
2023-03-24T10:45:37.363Z,18.20
2023-03-24T10:48:06.294Z,18.19
2023-03-24T10:50:42.377Z,18.12
2023-03-24T10:53:21.000Z,18.06
2023-03-24T10:55:51.171Z,18.01
2023-03-24T10:58:36.003Z,17.97
2023-03-24T11:01:24.267Z,17.94
2023-03-24T11:04:00.938Z,17.90
2023-03-24T11:06:30.083Z,17.86
2023-03-24T11:09:41.154Z,17.87
2023-03-24T11:12:29.973Z,17.84
2023-03-24T11:15:17.617Z,17.82
2023-03-24T11:18:22.520Z,17.79
2023-03-24T11:20:57.520Z,17.77
2023-03-24T11:23:32.952Z,17.75
2023-03-24T11:26:23.564Z,17.73
2023-03-24T11:28:53.780Z,17.69
2023-03-24T11:31:30.744Z,17.65
2023-03-24T11:34:20.996Z,17.62
2023-03-24T11:36:54.142Z,17.60
2023-03-24T11:39:24.230Z,17.57
2023-03-24T11:42:04.171Z,17.54
2023-03-24T11:44:52.134Z,17.53
2023-03-24T11:47:33.141Z,17.51
2023-03-24T11:50:11.224Z,17.48
2023-03-24T11:52:46.260Z,17.46
2023-03-24T11:55:42.598Z,17.43
2023-03-24T11:58:28.479Z,17.41
2023-03-24T12:01:02.172Z,17.38
2023-03-24T12:04:26.471Z,17.33
2023-03-24T12:07:32.289Z,17.27
2023-03-24T12:10:24.261Z,17.22
2023-03-24T12:13:18.984Z,17.19
2023-03-24T12:16:10.787Z,17.15
2023-03-24T12:19:19.015Z,17.13
2023-03-24T12:22:00.177Z,17.11
2023-03-24T12:25:08.334Z,17.09
2023-03-24T12:27:56.385Z,17.07
2023-03-24T12:30:37.506Z,17.05
2023-03-24T12:33:28.612Z,17.04
2023-03-24T12:36:12.936Z,17.01
2023-03-24T12:38:54.830Z,16.98
2023-03-24T12:41:36.258Z,16.97
2023-03-24T12:44:22.953Z,16.95
2023-03-24T12:47:07.815Z,16.93
2023-03-24T12:49:58.727Z,16.91
2023-03-24T12:53:06.813Z,16.89
2023-03-24T12:55:41.456Z,16.88
2023-03-24T12:58:12.189Z,16.88
2023-03-24T13:01:01.579Z,16.85
2023-03-24T13:03:47.150Z,16.85
2023-03-24T13:06:42.193Z,16.84
2023-03-24T13:09:19.949Z,16.85
2023-03-24T13:11:51.914Z,16.85
2023-03-24T13:14:24.267Z,16.82
2023-03-24T13:17:03.866Z,16.81
2023-03-24T13:19:32.714Z,16.81
2023-03-24T13:22:01.716Z,16.80
2023-03-24T13:24:33.630Z,16.79
2023-03-24T13:27:44.038Z,16.77
2023-03-24T13:30:31.658Z,16.75
2023-03-24T13:33:16.322Z,16.74
2023-03-24T13:35:58.440Z,16.71
2023-03-24T13:38:29.669Z,16.68
2023-03-24T13:40:58.879Z,16.67
2023-03-24T13:43:31.647Z,16.66
2023-03-24T13:46:14.007Z,16.67
2023-03-24T13:48:51.300Z,16.68
2023-03-24T13:51:27.842Z,16.68
2023-03-24T13:54:26.607Z,16.67
2023-03-24T13:57:17.511Z,16.66
2023-03-24T14:00:17.526Z,16.64
2023-03-24T14:02:52.917Z,16.62
2023-03-24T14:05:58.994Z,16.61
2023-03-24T14:08:53.850Z,16.57
2023-03-24T14:11:35.021Z,16.55
2023-03-24T14:14:14.035Z,16.54
2023-03-24T14:16:47.655Z,16.52
2023-03-24T14:19:17.978Z,16.51
2023-03-24T14:21:53.106Z,16.49
2023-03-24T14:24:27.480Z,16.48
2023-03-24T14:26:56.676Z,16.46
2023-03-24T14:29:48.758Z,16.44
2023-03-24T14:32:21.600Z,16.43
2023-03-24T14:34:59.032Z,16.41
2023-03-24T14:37:28.506Z,16.40
2023-03-24T14:39:57.724Z,16.39
2023-03-24T14:42:32.760Z,16.40
2023-03-24T14:45:05.341Z,16.39
2023-03-24T14:47:35.078Z,16.38
2023-03-24T14:50:21.545Z,16.36
2023-03-24T14:52:59.364Z,16.33
2023-03-24T14:55:28.047Z,16.30
2023-03-24T14:58:00.755Z,16.27
2023-03-24T15:01:08.087Z,16.24
2023-03-24T15:04:07.672Z,16.20
2023-03-24T15:06:47.932Z,16.16
2023-03-24T15:09:18.324Z,16.13
2023-03-24T15:11:47.606Z,16.10
2023-03-24T15:14:24.002Z,16.07
2023-03-24T15:17:24.715Z,16.06
2023-03-24T15:19:55.436Z,16.03
2023-03-24T15:22:25.668Z,16.01
2023-03-24T15:24:54.749Z,16.00
2023-03-24T15:27:34.748Z,15.98
2023-03-24T15:30:06.605Z,15.96
2023-03-24T15:32:39.665Z,15.95
2023-03-24T15:35:09.102Z,15.93
2023-03-24T15:37:43.381Z,15.91
2023-03-24T15:40:27.308Z,15.87
2023-03-24T15:43:01.533Z,15.85
2023-03-24T15:45:33.821Z,15.84
2023-03-24T15:48:08.720Z,15.81
2023-03-24T15:50:41.990Z,15.79
2023-03-24T15:53:20.878Z,15.75
2023-03-24T15:56:07.382Z,15.71
2023-03-24T15:58:56.468Z,15.68
2023-03-24T16:01:40.296Z,15.65
2023-03-24T16:04:14.537Z,15.63
2023-03-24T16:06:48.601Z,15.59
2023-03-24T16:09:22.248Z,15.56
2023-03-24T16:11:51.744Z,15.53
2023-03-24T16:14:23.955Z,15.49
2023-03-24T16:16:57.387Z,15.46
2023-03-24T16:19:26.559Z,15.42
2023-03-24T16:21:55.629Z,15.36
2023-03-24T16:24:24.899Z,15.30
2023-03-24T16:26:53.745Z,15.24
2023-03-24T16:29:26.797Z,15.17
2023-03-24T16:31:57.157Z,15.10
2023-03-24T16:34:26.655Z,15.03
2023-03-24T16:36:58.415Z,14.97
2023-03-24T16:39:29.320Z,14.90
2023-03-24T16:42:01.965Z,14.84
